createdAt,value
2022-08-05T00:02:24.954Z,6.97
2022-08-05T00:08:00.072Z,6.93
2022-08-05T00:12:55.800Z,7.23
2022-08-05T00:17:45.335Z,6.70
2022-08-05T00:22:52.548Z,7.23
2022-08-05T00:28:00.159Z,6.27
2022-08-05T00:33:05.940Z,6.87
2022-08-05T00:38:13.478Z,7.00
2022-08-05T00:43:21.340Z,7.47
2022-08-05T00:48:31.210Z,7.37
2022-08-05T00:54:00.058Z,6.53
2022-08-05T00:58:42.527Z,7.03
2022-08-05T01:03:49.974Z,6.77
2022-08-05T01:08:55.730Z,7.07
2022-08-05T01:14:11.827Z,7.10
2022-08-05T01:19:46.185Z,7.23
2022-08-05T01:24:46.820Z,7.17
2022-08-05T01:29:55.452Z,7.30
2022-08-05T01:35:10.708Z,7.90
2022-08-05T01:40:14.188Z,8.53
2022-08-05T01:45:22.932Z,7.87
2022-08-05T01:50:40.507Z,7.80
2022-08-05T01:55:48.692Z,7.80
2022-08-05T02:00:57.072Z,7.23
2022-08-05T02:06:33.935Z,8.00
2022-08-05T02:11:16.382Z,7.67
2022-08-05T02:16:27.695Z,7.57
2022-08-05T02:21:40.263Z,7.50
2022-08-05T02:26:55.853Z,7.20
2022-08-05T02:32:04.750Z,7.70
2022-08-05T02:37:13.100Z,6.73
2022-08-05T02:42:25.688Z,7.50
2022-08-05T02:47:58.748Z,7.40
2022-08-05T02:52:37.122Z,8.17
2022-08-05T02:58:10.280Z,7.37
2022-08-05T03:02:54.034Z,6.90
2022-08-05T03:08:07.006Z,7.43
2022-08-05T03:13:17.264Z,7.87
2022-08-05T03:18:24.622Z,7.50
2022-08-05T03:23:30.642Z,7.23
2022-08-05T03:28:37.130Z,7.33
2022-08-05T03:33:52.778Z,6.97
2022-08-05T03:38:53.240Z,7.10
2022-08-05T03:44:08.957Z,7.83
2022-08-05T03:49:04.819Z,7.70
2022-08-05T03:55:51.364Z,8.20
2022-08-05T03:59:26.323Z,7.33
2022-08-05T04:04:34.871Z,6.97
2022-08-05T04:09:53.552Z,6.80
2022-08-05T04:14:48.987Z,7.30
2022-08-05T04:19:58.636Z,7.13
2022-08-05T04:25:01.825Z,8.00
2022-08-05T04:30:09.369Z,7.70
2022-08-05T04:35:19.380Z,7.77
2022-08-05T04:40:22.272Z,7.40
2022-08-05T04:45:48.336Z,7.80
2022-08-05T04:51:03.021Z,7.67
2022-08-05T04:56:14.768Z,7.87
2022-08-05T05:00:55.721Z,8.40
2022-08-05T05:06:40.555Z,7.60
2022-08-05T05:11:08.969Z,7.30
2022-08-05T05:16:15.471Z,8.47
2022-08-05T05:21:22.458Z,8.60
2022-08-05T05:26:32.761Z,9.53
2022-08-05T05:36:41.393Z,9.23
2022-08-05T05:41:54.333Z,9.43
2022-08-05T05:46:57.826Z,9.73
2022-08-05T05:52:05.697Z,9.90
2022-08-05T05:57:13.690Z,8.67
2022-08-05T06:02:37.565Z,9.37
2022-08-05T06:07:41.983Z,9.60
2022-08-05T06:12:33.058Z,8.87
2022-08-05T06:17:53.125Z,8.90
2022-08-05T06:22:46.538Z,10.17
2022-08-05T06:28:11.918Z,10.37
2022-08-05T06:32:59.450Z,9.47
2022-08-05T06:38:09.978Z,9.17
2022-08-05T06:43:58.654Z,10.07
2022-08-05T06:48:54.571Z,9.80
2022-08-05T06:53:28.516Z,10.70
2022-08-05T06:58:36.766Z,10.00
2022-08-05T07:03:42.130Z,10.17
2022-08-05T07:08:54.749Z,10.10
2022-08-05T07:14:15.836Z,10.70
2022-08-05T07:20:10.508Z,10.90
2022-08-05T07:24:29.845Z,12.23
2022-08-05T07:30:27.814Z,13.17
2022-08-05T07:34:43.784Z,11.20
2022-08-05T07:40:27.050Z,11.10
2022-08-05T07:44:57.357Z,11.77
2022-08-05T07:50:06.637Z,12.77
2022-08-05T07:55:15.907Z,13.63
2022-08-05T08:00:19.814Z,12.83
2022-08-05T08:05:27.004Z,11.37
2022-08-05T08:10:32.592Z,11.83
2022-08-05T08:16:35.578Z,10.77
2022-08-05T08:21:02.410Z,6.50
2022-08-05T08:25:59.194Z,5.80
2022-08-05T08:31:00.465Z,5.50
2022-08-05T08:36:38.898Z,5.37
2022-08-05T08:41:16.915Z,4.50
2022-08-05T08:46:25.068Z,5.00
2022-08-05T08:52:03.025Z,4.20
2022-08-05T08:56:47.412Z,3.73
2022-08-05T09:01:57.099Z,3.77
2022-08-05T09:06:58.328Z,2.90
2022-08-05T09:12:19.938Z,3.20
2022-08-05T09:17:43.144Z,2.45
2022-08-05T09:22:31.189Z,2.97
2022-08-05T09:28:03.778Z,4.07
2022-08-05T09:32:46.852Z,3.23
2022-08-05T09:38:12.391Z,2.87
2022-08-05T09:43:04.992Z,2.70
2022-08-05T09:48:27.111Z,2.80
2022-08-05T09:53:54.506Z,2.80
2022-08-05T09:59:04.661Z,3.27
2022-08-05T10:04:13.904Z,3.00
2022-08-05T10:09:27.501Z,2.73
2022-08-05T10:14:33.099Z,3.03
2022-08-05T10:20:04.258Z,2.60
2022-08-05T10:24:46.795Z,2.60
2022-08-05T10:30:41.510Z,2.80
2022-08-05T10:35:02.301Z,2.87
2022-08-05T10:40:17.513Z,4.20
2022-08-05T10:45:23.591Z,2.93
2022-08-05T10:50:36.349Z,2.97
2022-08-05T10:56:03.813Z,2.83
2022-08-05T11:00:48.577Z,2.40
2022-08-05T11:06:08.526Z,2.50
2022-08-05T11:11:52.136Z,2.30
2022-08-05T11:16:47.885Z,3.13
2022-08-05T11:21:49.808Z,4.23
2022-08-05T11:27:15.071Z,3.60
2022-08-05T11:32:31.397Z,5.13
2022-08-05T11:38:29.049Z,6.53
2022-08-05T11:42:53.570Z,10.17
2022-08-05T11:47:59.864Z,6.23
2022-08-05T11:53:09.800Z,6.03
2022-08-05T11:58:14.061Z,5.03
2022-08-05T12:03:28.746Z,5.33
2022-08-05T12:08:32.661Z,5.27
2022-08-05T12:13:48.585Z,7.77
2022-08-05T12:18:52.219Z,4.17
2022-08-05T12:24:08.501Z,3.50
2022-08-05T12:29:22.500Z,3.30
2022-08-05T12:34:29.670Z,3.20
2022-08-05T12:39:38.711Z,3.13
2022-08-05T12:44:44.908Z,3.27
2022-08-05T12:50:04.009Z,2.53
2022-08-05T12:54:57.909Z,2.33
2022-08-05T13:01:58.236Z,2.60
2022-08-05T13:05:16.170Z,2.63
2022-08-05T13:10:21.925Z,2.50
2022-08-05T13:15:41.510Z,2.93
2022-08-05T13:20:40.429Z,2.50
2022-08-05T13:25:58.838Z,2.10
2022-08-05T13:30:55.555Z,2.77
2022-08-05T13:36:05.174Z,2.80
2022-08-05T13:41:10.285Z,3.93
2022-08-05T13:46:18.529Z,4.10
2022-08-05T13:51:36.673Z,4.37
2022-08-05T13:56:45.423Z,4.87
2022-08-05T14:01:56.676Z,4.47
2022-08-05T14:06:58.826Z,4.50
2022-08-05T14:12:18.182Z,4.45
2022-08-05T14:17:16.886Z,4.23
2022-08-05T14:22:19.500Z,3.77
2022-08-05T14:27:25.052Z,3.57
2022-08-05T14:32:32.753Z,3.10
2022-08-05T14:37:48.026Z,3.30
2022-08-05T14:42:48.275Z,3.33
2022-08-05T14:48:03.774Z,2.63
2022-08-05T14:53:02.321Z,3.40
2022-08-05T14:58:11.123Z,4.33
2022-08-05T15:03:17.005Z,4.42
2022-08-05T15:08:58.329Z,4.37
2022-08-05T15:13:46.228Z,4.17
2022-08-05T15:18:40.135Z,3.50
2022-08-05T15:23:47.132Z,4.20
2022-08-05T15:28:53.513Z,4.80
2022-08-05T15:34:19.073Z,4.50
2022-08-05T15:41:00.430Z,3.93
2022-08-05T15:44:13.714Z,3.33
2022-08-05T15:49:27.475Z,4.07
2022-08-05T15:54:34.992Z,4.60
2022-08-05T15:59:34.786Z,4.53
2022-08-05T16:04:40.346Z,4.77
2022-08-05T16:09:46.328Z,6.40
2022-08-05T16:14:51.987Z,9.00
2022-08-05T16:20:05.972Z,8.13
2022-08-05T16:25:09.491Z,7.23
2022-08-05T16:30:25.900Z,6.30
2022-08-05T16:35:27.942Z,5.33
2022-08-05T16:40:29.686Z,4.73
2022-08-05T16:46:07.235Z,4.97
2022-08-05T16:50:42.716Z,4.63
2022-08-05T16:55:48.283Z,4.63
2022-08-05T17:00:54.152Z,5.10
2022-08-05T17:06:03.925Z,4.47
2022-08-05T17:11:12.862Z,4.47
2022-08-05T17:16:32.741Z,4.50
2022-08-05T17:21:36.412Z,4.70
2022-08-05T17:26:34.626Z,4.40
2022-08-05T17:31:57.310Z,5.60
2022-08-05T17:36:49.896Z,4.40
2022-08-05T17:42:17.844Z,5.00
2022-08-05T17:47:02.669Z,3.60
2022-08-05T17:52:08.240Z,2.30
2022-08-05T17:57:15.431Z,1.80
2022-08-05T18:02:21.922Z,1.30
2022-08-05T18:07:32.851Z,1.13
2022-08-05T18:12:36.329Z,1.10
2022-08-05T18:17:58.713Z,1.30
2022-08-05T18:22:54.961Z,1.70
2022-08-05T18:27:56.325Z,2.10
2022-08-05T18:33:03.554Z,1.87
2022-08-05T18:38:09.264Z,1.60
2022-08-05T18:43:16.571Z,1.80
2022-08-05T18:48:30.588Z,1.50
2022-08-05T18:53:29.701Z,2.00
2022-08-05T18:58:36.960Z,1.10
2022-08-05T19:03:55.237Z,1.20
2022-08-05T19:08:51.486Z,1.00
2022-08-05T19:14:00.777Z,1.40
2022-08-05T19:19:05.880Z,1.67
2022-08-05T19:24:13.313Z,1.20
2022-08-05T19:29:20.933Z,1.17
2022-08-05T19:34:26.985Z,1.33
2022-08-05T19:39:32.670Z,1.33
2022-08-05T19:44:45.036Z,1.23
2022-08-05T19:49:49.764Z,1.37
2022-08-05T19:54:55.661Z,1.40
2022-08-05T20:00:04.343Z,1.60
2022-08-05T20:05:16.563Z,1.73
2022-08-05T20:10:22.391Z,1.23
2022-08-05T20:15:51.688Z,1.40
2022-08-05T20:20:33.939Z,1.50
2022-08-05T20:25:43.205Z,1.50
2022-08-05T20:30:49.405Z,1.40
2022-08-05T20:35:56.951Z,1.57
2022-08-05T20:41:04.638Z,1.60
2022-08-05T20:46:18.225Z,1.90
2022-08-05T20:51:21.484Z,1.60
2022-08-05T20:56:29.689Z,1.83
2022-08-05T21:01:38.645Z,2.00
2022-08-05T21:06:45.538Z,1.90
2022-08-05T21:12:07.463Z,1.60
2022-08-05T21:16:57.482Z,1.40
2022-08-05T21:22:03.076Z,1.20
2022-08-05T21:27:09.227Z,1.53
2022-08-05T21:32:19.839Z,1.10
2022-08-05T21:37:21.981Z,1.07
2022-08-05T21:42:41.171Z,1.30
2022-08-05T21:47:56.432Z,1.20
2022-08-05T21:52:47.120Z,1.57
2022-08-05T21:57:51.415Z,1.33
2022-08-05T22:02:58.622Z,1.60
2022-08-05T22:08:04.190Z,1.20
2022-08-05T22:14:19.953Z,1.37
2022-08-05T22:18:19.621Z,1.50
2022-08-05T22:24:02.402Z,1.23
2022-08-05T22:28:50.994Z,1.83
2022-08-05T22:34:01.519Z,1.67
2022-08-05T22:39:09.424Z,1.60
2022-08-05T22:44:13.991Z,1.80
2022-08-05T22:50:18.084Z,1.40
2022-08-05T22:54:28.740Z,2.17
2022-08-05T22:59:45.874Z,1.70
2022-08-05T23:04:42.569Z,2.13
2022-08-05T23:09:53.392Z,2.50
2022-08-05T23:14:57.591Z,1.97
2022-08-05T23:20:05.297Z,2.33
2022-08-05T23:25:11.473Z,1.90
2022-08-05T23:30:17.560Z,1.80
2022-08-05T23:35:23.035Z,2.50
2022-08-05T23:40:28.700Z,2.43
2022-08-05T23:45:34.409Z,2.23
2022-08-05T23:50:41.256Z,2.73
2022-08-05T23:55:46.817Z,2.53
